createdAt,value
2023-05-10T00:00:28.958Z,33.24
2023-05-10T00:01:29.056Z,33.24
2023-05-10T00:02:29.171Z,33.23
2023-05-10T00:03:29.204Z,33.24
2023-05-10T00:04:29.263Z,33.26
2023-05-10T00:05:29.261Z,33.26
2023-05-10T00:06:29.295Z,33.26
2023-05-10T00:07:29.450Z,33.27
2023-05-10T00:08:29.450Z,33.27
2023-05-10T00:09:29.526Z,33.27
2023-05-10T00:10:29.598Z,33.28
2023-05-10T00:11:29.646Z,33.27
2023-05-10T00:12:29.686Z,33.27
2023-05-10T00:13:29.756Z,33.31
2023-05-10T00:14:29.769Z,33.26
2023-05-10T00:15:29.804Z,33.27
2023-05-10T00:16:29.910Z,33.26
2023-05-10T00:17:29.976Z,33.29
2023-05-10T00:18:30.036Z,33.26
2023-05-10T00:19:30.153Z,33.30
2023-05-10T00:20:30.151Z,33.31
2023-05-10T00:21:30.210Z,33.29
2023-05-10T00:22:30.265Z,33.31
2023-05-10T00:23:30.304Z,33.31
2023-05-10T00:24:30.376Z,33.31
2023-05-10T00:25:30.447Z,33.34
2023-05-10T00:26:30.506Z,33.32
2023-05-10T00:27:30.570Z,33.34
2023-05-10T00:28:30.619Z,33.32
2023-05-10T00:29:30.748Z,33.36
2023-05-10T00:30:30.739Z,33.34
2023-05-10T00:31:30.783Z,33.34
2023-05-10T00:32:30.914Z,33.35
2023-05-10T00:33:30.921Z,33.37
2023-05-10T00:34:30.966Z,33.38
2023-05-10T00:35:31.039Z,33.37
2023-05-10T00:36:31.124Z,33.36
2023-05-10T00:37:31.168Z,33.37
2023-05-10T00:38:31.196Z,33.38
2023-05-10T00:39:31.263Z,33.35
2023-05-10T00:40:31.305Z,33.36
2023-05-10T00:41:31.377Z,33.38
2023-05-10T00:42:31.438Z,33.41
2023-05-10T00:43:31.487Z,33.40
2023-05-10T00:44:31.559Z,33.37
2023-05-10T00:45:31.584Z,33.41
2023-05-10T00:46:31.698Z,33.42
2023-05-10T00:47:31.711Z,33.38
2023-05-10T00:48:32.092Z,33.43
2023-05-10T00:49:31.870Z,33.47
2023-05-10T00:50:31.904Z,33.39
2023-05-10T00:51:31.974Z,33.42
2023-05-10T00:52:32.024Z,33.44
2023-05-10T00:53:32.428Z,33.44
2023-05-10T00:54:32.121Z,33.45
2023-05-10T00:55:32.217Z,33.46
2023-05-10T00:56:32.268Z,33.46
2023-05-10T00:57:32.380Z,33.46
2023-05-10T00:58:32.414Z,33.46
2023-05-10T00:59:32.454Z,33.46
2023-05-10T01:00:32.534Z,33.48
2023-05-10T01:01:32.601Z,33.49
2023-05-10T01:02:32.681Z,33.48
2023-05-10T01:03:32.747Z,33.50
2023-05-10T01:04:32.764Z,33.51
2023-05-10T01:05:32.817Z,33.53
2023-05-10T01:06:32.848Z,33.51
2023-05-10T01:07:32.909Z,33.53
2023-05-10T01:08:33.118Z,33.54
2023-05-10T01:09:32.968Z,33.55
2023-05-10T01:10:33.066Z,33.56
2023-05-10T01:11:33.094Z,33.54
2023-05-10T01:12:33.156Z,33.54
2023-05-10T01:13:33.169Z,33.53
2023-05-10T01:14:33.234Z,33.51
2023-05-10T01:15:33.285Z,33.57
2023-05-10T01:16:33.481Z,33.56
2023-05-10T01:17:33.511Z,33.59
2023-05-10T01:18:33.508Z,33.59
2023-05-10T01:19:33.480Z,33.62
2023-05-10T01:20:33.568Z,33.62
2023-05-10T01:21:33.542Z,33.60
2023-05-10T01:22:33.572Z,33.63
2023-05-10T01:23:33.722Z,33.63
2023-05-10T01:24:33.622Z,33.66
2023-05-10T01:25:33.660Z,33.64
2023-05-10T01:26:33.746Z,33.63
2023-05-10T01:27:33.812Z,33.64
2023-05-10T01:28:33.822Z,33.65
2023-05-10T01:29:33.832Z,33.67
2023-05-10T01:30:33.907Z,33.66
2023-05-10T01:31:33.846Z,33.68
2023-05-10T01:32:33.872Z,33.68
2023-05-10T01:33:33.887Z,33.70
2023-05-10T01:34:34.010Z,33.68
2023-05-10T01:35:34.028Z,33.67
2023-05-10T01:36:34.007Z,33.69
2023-05-10T01:37:34.056Z,33.69
2023-05-10T01:38:34.040Z,33.68
2023-05-10T01:39:34.029Z,33.69
2023-05-10T01:40:34.034Z,33.70
2023-05-10T01:41:34.165Z,33.70
2023-05-10T01:42:34.120Z,33.71
2023-05-10T01:43:34.164Z,33.69
2023-05-10T01:44:34.136Z,33.71
2023-05-10T01:45:34.246Z,33.73
2023-05-10T01:46:34.191Z,33.73
2023-05-10T01:47:34.216Z,33.75
2023-05-10T01:48:34.186Z,33.72
2023-05-10T01:49:34.205Z,33.74
2023-05-10T01:50:34.302Z,33.74
2023-05-10T01:51:34.251Z,33.75
2023-05-10T01:52:34.292Z,33.76
2023-05-10T01:53:34.265Z,33.74
2023-05-10T01:54:34.340Z,33.76
2023-05-10T01:55:34.303Z,33.74
2023-05-10T01:56:34.279Z,33.79
2023-05-10T01:57:34.285Z,33.76
2023-05-10T01:58:34.268Z,33.74
2023-05-10T01:59:34.280Z,33.76
2023-05-10T02:00:34.400Z,33.79
2023-05-10T02:01:34.447Z,33.79
2023-05-10T02:02:34.617Z,33.77
2023-05-10T02:03:34.674Z,33.81
2023-05-10T02:04:34.695Z,33.79
2023-05-10T02:05:34.637Z,33.80
2023-05-10T02:06:34.626Z,33.78
2023-05-10T02:07:34.661Z,33.79
2023-05-10T02:08:34.701Z,33.78
2023-05-10T02:09:34.747Z,33.78
2023-05-10T02:10:34.740Z,33.78
2023-05-10T02:11:34.746Z,33.79
2023-05-10T02:12:34.800Z,33.80
2023-05-10T02:13:34.757Z,33.80
2023-05-10T02:14:34.740Z,33.80
2023-05-10T02:15:34.799Z,33.81
2023-05-10T02:16:34.913Z,33.81
2023-05-10T02:17:35.014Z,33.84
2023-05-10T02:18:35.055Z,33.84
2023-05-10T02:19:35.045Z,33.84
2023-05-10T02:20:35.065Z,33.81
2023-05-10T02:21:35.055Z,33.84
2023-05-10T02:22:35.036Z,33.84
2023-05-10T02:23:35.055Z,33.84
2023-05-10T02:24:35.080Z,33.83
2023-05-10T02:25:35.199Z,33.86
2023-05-10T02:26:35.273Z,33.84
2023-05-10T02:27:35.370Z,33.82
2023-05-10T02:28:35.482Z,33.85
2023-05-10T02:29:35.523Z,33.88
2023-05-10T02:30:35.648Z,33.87
2023-05-10T02:31:35.729Z,33.86
2023-05-10T02:32:35.720Z,33.87
2023-05-10T02:33:35.708Z,33.89
2023-05-10T02:34:35.726Z,33.88
2023-05-10T02:35:35.701Z,33.90
2023-05-10T02:36:35.745Z,33.91
2023-05-10T02:37:35.799Z,33.90
2023-05-10T02:38:35.867Z,33.88
2023-05-10T02:39:35.948Z,33.89
2023-05-10T02:40:36.046Z,33.92
2023-05-10T02:41:36.052Z,33.90
2023-05-10T02:42:36.058Z,33.90
2023-05-10T02:43:36.043Z,33.90
2023-05-10T02:44:36.030Z,33.93
2023-05-10T02:45:36.052Z,33.92
2023-05-10T02:46:36.122Z,33.90
2023-05-10T02:47:36.242Z,33.93
2023-05-10T02:48:36.290Z,33.95
2023-05-10T02:49:36.369Z,33.96
2023-05-10T02:50:36.393Z,33.92
2023-05-10T02:51:36.373Z,33.93
2023-05-10T02:52:36.370Z,33.95
2023-05-10T02:53:36.402Z,33.96
2023-05-10T02:54:36.432Z,33.94
2023-05-10T02:55:36.513Z,33.95
2023-05-10T02:56:36.625Z,33.97
2023-05-10T02:57:36.723Z,33.98
2023-05-10T02:58:36.755Z,33.99
2023-05-10T02:59:36.856Z,33.98
2023-05-10T03:00:36.860Z,33.97
2023-05-10T03:01:36.849Z,33.98
2023-05-10T03:02:36.884Z,33.98
2023-05-10T03:03:36.872Z,33.98
2023-05-10T03:04:36.908Z,33.99
2023-05-10T03:05:36.910Z,33.99
2023-05-10T03:06:36.879Z,33.97
2023-05-10T03:07:36.885Z,33.99
2023-05-10T03:08:36.884Z,33.99
2023-05-10T03:09:36.881Z,34.01
2023-05-10T03:10:36.881Z,33.99
2023-05-10T03:11:36.913Z,34.02
2023-05-10T03:12:36.867Z,34.03
2023-05-10T03:13:36.917Z,34.04
2023-05-10T03:14:36.874Z,34.04
2023-05-10T03:15:36.971Z,34.02
2023-05-10T03:16:36.986Z,34.04
2023-05-10T03:17:37.044Z,34.04
2023-05-10T03:18:36.948Z,34.03
2023-05-10T03:19:36.963Z,34.04
2023-05-10T03:20:36.962Z,34.05
2023-05-10T03:21:37.084Z,34.04
2023-05-10T03:22:37.183Z,34.06
2023-05-10T03:23:37.290Z,34.05
2023-05-10T03:24:37.332Z,34.08
2023-05-10T03:25:37.330Z,34.05
2023-05-10T03:26:37.335Z,34.07
2023-05-10T03:27:37.359Z,34.07
2023-05-10T03:28:37.378Z,34.06
2023-05-10T03:29:37.345Z,34.08
2023-05-10T03:30:37.449Z,34.08
2023-05-10T03:31:37.474Z,34.06
2023-05-10T03:32:37.489Z,34.07
2023-05-10T03:33:37.478Z,34.06
2023-05-10T03:34:37.433Z,34.11
2023-05-10T03:35:37.469Z,34.09
2023-05-10T03:36:37.542Z,34.10
2023-05-10T03:37:37.629Z,34.08
2023-05-10T03:38:37.727Z,34.08
2023-05-10T03:39:37.845Z,34.10
2023-05-10T03:40:37.817Z,34.12
2023-05-10T03:41:37.881Z,34.09
2023-05-10T03:42:37.856Z,34.12
2023-05-10T03:43:37.833Z,34.11
2023-05-10T03:44:37.859Z,34.14
2023-05-10T03:45:37.922Z,34.13
2023-05-10T03:46:37.988Z,34.10
2023-05-10T03:47:37.983Z,34.10
2023-05-10T03:48:37.946Z,34.12
2023-05-10T03:49:37.921Z,34.14
2023-05-10T03:50:37.957Z,34.12
2023-05-10T03:51:38.088Z,34.13
2023-05-10T03:52:38.272Z,34.15
2023-05-10T03:53:38.175Z,34.13
2023-05-10T03:54:38.186Z,34.14
2023-05-10T03:55:38.159Z,34.16
2023-05-10T03:56:38.169Z,34.15
2023-05-10T03:57:38.219Z,34.15
2023-05-10T03:58:38.210Z,34.14
2023-05-10T03:59:38.193Z,34.16
2023-05-10T04:00:38.201Z,34.15
2023-05-10T04:01:38.259Z,34.14
2023-05-10T04:02:38.523Z,34.21
2023-05-10T04:03:38.290Z,34.24
2023-05-10T04:04:38.252Z,34.21
2023-05-10T04:05:38.250Z,34.43
2023-05-10T04:06:38.284Z,34.50
2023-05-10T04:07:38.264Z,34.58
2023-05-10T04:08:38.286Z,34.70
2023-05-10T04:09:38.347Z,34.70
2023-05-10T04:10:38.344Z,34.80
2023-05-10T04:11:38.329Z,34.80
2023-05-10T04:12:38.329Z,34.84
2023-05-10T04:13:38.388Z,34.88
2023-05-10T04:14:38.456Z,34.88
2023-05-10T04:15:38.451Z,34.88
2023-05-10T04:16:38.479Z,34.93
2023-05-10T04:17:38.491Z,34.98
2023-05-10T04:18:38.446Z,35.13
2023-05-10T04:19:38.489Z,35.16
2023-05-10T04:20:38.485Z,35.17
2023-05-10T04:21:38.496Z,35.22
2023-05-10T04:22:38.525Z,35.23
2023-05-10T04:23:38.547Z,35.22
2023-05-10T04:24:38.602Z,35.28
2023-05-10T04:25:38.595Z,35.29
2023-05-10T04:26:38.637Z,35.31
2023-05-10T04:27:38.642Z,35.39
2023-05-10T04:28:38.731Z,35.48
2023-05-10T04:29:38.728Z,35.48
2023-05-10T04:30:38.759Z,35.49
2023-05-10T04:31:38.733Z,35.48
2023-05-10T04:32:38.807Z,35.44
2023-05-10T04:33:38.797Z,35.43
2023-05-10T04:34:38.816Z,35.43
2023-05-10T04:35:38.843Z,35.42
2023-05-10T04:36:38.981Z,35.42
2023-05-10T04:37:38.847Z,35.40
2023-05-10T04:38:38.879Z,35.40
2023-05-10T04:39:40.305Z,35.37
2023-05-10T04:40:38.903Z,35.37
2023-05-10T04:41:38.878Z,35.35
2023-05-10T04:42:38.892Z,35.38
2023-05-10T04:43:38.916Z,35.32
2023-05-10T04:44:38.873Z,35.30
2023-05-10T04:45:38.867Z,35.30
2023-05-10T04:46:38.910Z,35.24
2023-05-10T04:47:38.884Z,35.25
2023-05-10T04:48:38.890Z,35.22
2023-05-10T04:49:38.869Z,35.19
2023-05-10T04:50:38.856Z,35.19
2023-05-10T04:51:38.848Z,35.16
2023-05-10T04:52:38.847Z,35.14
2023-05-10T04:53:38.832Z,35.13
2023-05-10T04:54:38.844Z,35.13
2023-05-10T04:55:38.802Z,35.11
2023-05-10T04:56:38.845Z,35.12
2023-05-10T04:57:38.808Z,35.12
2023-05-10T04:58:38.814Z,35.11
2023-05-10T04:59:38.863Z,35.13
2023-05-10T05:00:38.762Z,35.14
2023-05-10T05:01:38.796Z,35.11
2023-05-10T05:02:38.823Z,35.16
2023-05-10T05:03:38.844Z,35.15
2023-05-10T05:04:38.752Z,35.12
2023-05-10T05:05:38.787Z,35.14
2023-05-10T05:06:38.757Z,35.12
2023-05-10T05:07:38.709Z,35.13
2023-05-10T05:08:38.716Z,35.12
2023-05-10T05:09:38.740Z,35.11
2023-05-10T05:10:38.744Z,35.12
2023-05-10T05:11:38.690Z,35.09
2023-05-10T05:12:38.708Z,35.09
2023-05-10T05:13:38.715Z,35.11
2023-05-10T05:14:38.684Z,35.09
2023-05-10T05:15:38.665Z,35.11
2023-05-10T05:16:38.739Z,35.12
2023-05-10T05:17:38.743Z,35.08
2023-05-10T05:18:38.661Z,35.11
2023-05-10T05:19:38.647Z,35.08
2023-05-10T05:20:38.661Z,35.07
2023-05-10T05:21:38.645Z,35.06
2023-05-10T05:22:38.644Z,35.06
2023-05-10T05:23:38.634Z,35.08
2023-05-10T05:24:38.608Z,35.05
2023-05-10T05:25:38.592Z,35.05
2023-05-10T05:26:38.599Z,35.08
2023-05-10T05:27:38.638Z,35.07
2023-05-10T05:28:38.589Z,35.06
2023-05-10T05:29:38.610Z,35.05
2023-05-10T05:30:38.576Z,35.15
2023-05-10T05:31:38.627Z,35.54
2023-05-10T05:32:38.610Z,35.44
2023-05-10T05:33:38.587Z,35.65
2023-05-10T05:34:38.589Z,35.82
2023-05-10T05:35:38.561Z,35.91
2023-05-10T05:36:38.539Z,36.31
2023-05-10T05:37:38.512Z,36.28
2023-05-10T05:38:38.599Z,36.14
2023-05-10T05:39:38.536Z,36.50
2023-05-10T05:40:38.539Z,36.76
2023-05-10T05:41:38.728Z,37.22
2023-05-10T05:42:38.533Z,37.53
2023-05-10T05:43:38.738Z,37.81
2023-05-10T05:44:38.464Z,37.86
2023-05-10T05:45:38.463Z,37.92
2023-05-10T05:46:38.477Z,37.89
2023-05-10T05:47:38.476Z,37.86
2023-05-10T05:48:38.704Z,37.78
2023-05-10T05:49:38.719Z,37.82
2023-05-10T05:50:38.739Z,37.78
2023-05-10T05:51:38.419Z,37.88
2023-05-10T05:52:38.445Z,37.96
2023-05-10T05:53:38.727Z,38.07
2023-05-10T05:54:38.424Z,38.11
2023-05-10T05:55:38.423Z,38.06
2023-05-10T05:56:38.387Z,38.19
2023-05-10T05:57:38.376Z,38.25
2023-05-10T05:58:38.369Z,38.32
2023-05-10T05:59:38.387Z,38.29
2023-05-10T06:00:38.400Z,38.21
2023-05-10T06:01:38.351Z,38.17
2023-05-10T06:02:38.526Z,38.30
2023-05-10T06:03:38.371Z,38.26
2023-05-10T06:04:39.193Z,38.37
2023-05-10T06:05:38.526Z,38.39
2023-05-10T06:06:38.717Z,38.37
2023-05-10T06:07:38.610Z,38.35
2023-05-10T06:08:38.668Z,38.32
2023-05-10T06:09:38.764Z,38.29
2023-05-10T06:10:38.815Z,38.53
2023-05-10T06:11:39.210Z,38.41
2023-05-10T06:12:38.875Z,38.36
2023-05-10T06:13:38.952Z,38.47
2023-05-10T06:14:38.977Z,38.56
2023-05-10T06:15:39.055Z,38.49
2023-05-10T06:16:39.235Z,38.47
2023-05-10T06:17:39.256Z,38.42
2023-05-10T06:18:39.240Z,38.46
2023-05-10T06:19:39.324Z,38.46
2023-05-10T06:20:39.420Z,38.50
2023-05-10T06:21:39.449Z,38.64
2023-05-10T06:22:39.490Z,38.56
2023-05-10T06:23:39.556Z,38.59
2023-05-10T06:24:39.593Z,38.55
2023-05-10T06:25:39.643Z,38.64
2023-05-10T06:26:39.748Z,38.69
2023-05-10T06:27:40.234Z,38.78
2023-05-10T06:28:39.876Z,38.81
2023-05-10T06:29:39.905Z,38.84
2023-05-10T06:30:39.980Z,38.70
2023-05-10T06:31:40.015Z,38.77
2023-05-10T06:32:40.100Z,38.74
2023-05-10T06:33:40.097Z,38.88
2023-05-10T06:34:40.148Z,38.86
2023-05-10T06:35:40.183Z,38.70
2023-05-10T06:36:40.279Z,38.94
2023-05-10T06:37:40.347Z,39.20
2023-05-10T06:38:40.763Z,39.10
2023-05-10T06:39:40.438Z,39.10
2023-05-10T06:40:40.524Z,39.16
2023-05-10T06:41:40.538Z,38.97
2023-05-10T06:42:40.582Z,38.72
2023-05-10T06:43:40.647Z,38.65
2023-05-10T06:44:40.662Z,38.64
2023-05-10T06:45:40.605Z,38.78
2023-05-10T06:46:40.707Z,38.82
2023-05-10T06:47:40.826Z,39.02
2023-05-10T06:48:41.251Z,39.00
2023-05-10T06:49:41.310Z,39.11
2023-05-10T06:50:41.274Z,39.06
2023-05-10T06:51:40.916Z,39.15
2023-05-10T06:52:40.940Z,39.20
2023-05-10T06:53:41.020Z,39.18
2023-05-10T06:54:41.262Z,39.11
2023-05-10T06:55:41.270Z,39.17
2023-05-10T06:56:41.236Z,39.15
2023-05-10T06:57:41.772Z,39.10
2023-05-10T06:58:41.765Z,39.14
2023-05-10T06:59:41.406Z,39.08
2023-05-10T07:00:41.543Z,39.04
2023-05-10T07:01:41.528Z,39.05
2023-05-10T07:02:41.528Z,38.99
2023-05-10T07:03:41.744Z,39.09
2023-05-10T07:04:41.773Z,39.02
2023-05-10T07:05:41.831Z,39.04
2023-05-10T07:06:41.769Z,39.12
2023-05-10T07:07:41.731Z,39.13
2023-05-10T07:08:41.800Z,39.12
2023-05-10T07:09:41.887Z,39.04
2023-05-10T07:10:42.294Z,39.07
2023-05-10T07:11:41.890Z,39.11
2023-05-10T07:12:41.982Z,39.03
2023-05-10T07:13:42.032Z,39.05
2023-05-10T07:14:42.035Z,38.99
2023-05-10T07:15:42.237Z,39.03
2023-05-10T07:16:42.173Z,39.13
2023-05-10T07:17:44.144Z,39.03
2023-05-10T07:18:42.352Z,39.02
2023-05-10T07:19:42.106Z,39.03
2023-05-10T07:20:42.137Z,39.09
2023-05-10T07:21:42.073Z,39.09
2023-05-10T07:22:42.277Z,39.06
2023-05-10T07:23:43.630Z,39.01
2023-05-10T07:24:42.038Z,39.11
2023-05-10T07:25:42.092Z,39.09
2023-05-10T07:26:42.073Z,38.95
2023-05-10T07:27:42.062Z,39.08
2023-05-10T07:28:42.278Z,39.07
2023-05-10T07:29:42.005Z,39.02
2023-05-10T07:30:42.036Z,39.00
2023-05-10T07:31:42.035Z,39.14
2023-05-10T07:32:42.131Z,39.10
2023-05-10T07:33:42.112Z,39.16
2023-05-10T07:34:42.006Z,39.20
2023-05-10T07:35:42.261Z,39.25
2023-05-10T07:36:42.049Z,39.37
2023-05-10T07:37:42.272Z,39.34
2023-05-10T07:38:41.974Z,39.49
2023-05-10T07:39:42.362Z,39.45
2023-05-10T07:40:42.400Z,39.55
2023-05-10T07:41:42.018Z,39.50
2023-05-10T07:42:41.966Z,39.55
2023-05-10T07:43:41.975Z,39.48
2023-05-10T07:44:41.979Z,39.62
2023-05-10T07:45:41.927Z,39.59
2023-05-10T07:46:41.934Z,39.64
2023-05-10T07:47:42.015Z,39.58
2023-05-10T07:48:41.910Z,39.49
2023-05-10T07:49:41.885Z,39.49
2023-05-10T07:50:41.947Z,39.63
2023-05-10T07:51:41.920Z,39.62
2023-05-10T07:52:41.875Z,39.55
2023-05-10T07:53:41.872Z,39.59
2023-05-10T07:54:41.890Z,39.56
2023-05-10T07:55:41.844Z,39.65
2023-05-10T07:56:41.872Z,39.55
2023-05-10T07:57:41.892Z,39.67
2023-05-10T07:58:41.820Z,39.63
2023-05-10T07:59:41.837Z,39.54
2023-05-10T08:00:41.803Z,39.46
2023-05-10T08:01:41.824Z,39.42
2023-05-10T08:02:41.906Z,39.47
2023-05-10T08:03:41.909Z,39.47
2023-05-10T08:04:41.955Z,39.44
2023-05-10T08:05:41.815Z,39.56
2023-05-10T08:06:42.338Z,39.57
2023-05-10T08:07:41.779Z,39.42
2023-05-10T08:08:41.780Z,39.58
2023-05-10T08:09:41.792Z,39.55
2023-05-10T08:10:41.770Z,39.57
2023-05-10T08:11:42.331Z,39.51
2023-05-10T08:12:41.735Z,39.48
2023-05-10T08:13:41.806Z,39.32
2023-05-10T08:14:41.770Z,39.09
2023-05-10T08:15:41.796Z,39.01
2023-05-10T08:16:41.735Z,39.13
2023-05-10T08:17:41.764Z,39.33
2023-05-10T08:18:41.768Z,40.06
2023-05-10T08:19:41.697Z,39.41
2023-05-10T08:20:41.669Z,39.10
2023-05-10T08:21:41.714Z,39.21
2023-05-10T08:22:41.658Z,39.12
2023-05-10T08:23:41.671Z,39.35
2023-05-10T08:24:41.675Z,39.53
2023-05-10T08:25:41.673Z,39.40
2023-05-10T08:26:41.704Z,39.57
2023-05-10T08:27:41.654Z,39.77
2023-05-10T08:28:41.622Z,39.94
2023-05-10T08:29:49.574Z,40.09
2023-05-10T08:30:45.295Z,40.46
2023-05-10T08:31:41.668Z,40.52
2023-05-10T08:32:41.630Z,40.72
2023-05-10T08:34:41.582Z,40.98
2023-05-10T08:35:41.601Z,41.14
2023-05-10T08:36:41.683Z,41.40
2023-05-10T08:37:41.552Z,41.45
2023-05-10T08:38:41.586Z,41.53
2023-05-10T08:39:41.881Z,41.64
2023-05-10T08:40:41.948Z,41.61
2023-05-10T08:41:41.549Z,41.76
2023-05-10T08:42:41.598Z,41.67
2023-05-10T08:43:41.557Z,41.85
2023-05-10T08:44:41.801Z,41.99
2023-05-10T08:45:41.527Z,41.93
2023-05-10T08:46:41.549Z,41.95
2023-05-10T08:47:41.518Z,41.79
2023-05-10T08:48:41.498Z,41.74
2023-05-10T08:49:41.481Z,41.57
2023-05-10T08:50:41.466Z,41.42
2023-05-10T08:52:41.455Z,41.41
2023-05-10T08:53:41.465Z,41.20
2023-05-10T08:54:41.441Z,41.02
2023-05-10T08:55:41.486Z,41.20
2023-05-10T08:56:41.444Z,40.99
2023-05-10T08:57:41.780Z,40.83
2023-05-10T08:58:41.800Z,40.90
2023-05-10T08:59:41.426Z,40.71
2023-05-10T09:00:41.450Z,40.80
2023-05-10T09:01:41.404Z,40.73
2023-05-10T09:02:41.441Z,40.53
2023-05-10T09:03:41.422Z,40.45
2023-05-10T09:04:41.451Z,40.41
2023-05-10T09:05:41.400Z,40.37
2023-05-10T09:06:41.393Z,40.32
2023-05-10T09:07:41.388Z,40.23
2023-05-10T09:08:41.347Z,40.38
2023-05-10T09:09:41.354Z,40.37
2023-05-10T09:10:41.359Z,40.08
2023-05-10T09:11:41.366Z,40.17
2023-05-10T09:12:41.343Z,40.27
2023-05-10T09:13:41.304Z,40.04
2023-05-10T09:14:41.319Z,40.19
2023-05-10T09:15:41.286Z,40.08
2023-05-10T09:16:41.337Z,39.92
2023-05-10T09:17:41.362Z,39.96
2023-05-10T09:18:41.317Z,40.04
2023-05-10T09:19:41.256Z,39.92
2023-05-10T09:20:41.255Z,39.85
2023-05-10T09:21:41.439Z,39.83
2023-05-10T09:22:41.239Z,39.66
2023-05-10T09:23:41.255Z,39.68
2023-05-10T09:24:41.256Z,39.66
2023-05-10T09:25:41.254Z,39.64
2023-05-10T09:26:41.322Z,39.63
2023-05-10T09:27:41.308Z,39.77
2023-05-10T09:28:41.838Z,39.83
2023-05-10T09:29:41.394Z,39.77
2023-05-10T09:30:41.453Z,39.78
2023-05-10T09:31:41.459Z,39.53
2023-05-10T09:32:41.390Z,39.49
2023-05-10T09:33:41.423Z,39.47
2023-05-10T09:34:42.337Z,39.83
2023-05-10T09:35:41.497Z,39.78
2023-05-10T09:36:42.292Z,39.72
2023-05-10T09:37:41.501Z,39.82
2023-05-10T09:38:41.829Z,39.76
2023-05-10T09:39:41.636Z,39.78
2023-05-10T09:40:41.733Z,39.78
2023-05-10T09:41:41.760Z,39.76
2023-05-10T09:42:41.752Z,39.71
2023-05-10T09:43:42.312Z,39.61
2023-05-10T09:44:41.928Z,39.64
2023-05-10T09:45:41.953Z,39.58
2023-05-10T09:46:42.080Z,39.61
2023-05-10T09:47:42.193Z,39.59
2023-05-10T09:48:42.137Z,39.55
2023-05-10T09:49:42.204Z,39.52
2023-05-10T09:50:42.350Z,39.50
2023-05-10T09:51:42.260Z,39.46
2023-05-10T09:52:42.356Z,39.43
2023-05-10T09:53:42.379Z,39.38
2023-05-10T09:54:42.444Z,39.39
2023-05-10T09:55:42.519Z,39.40
2023-05-10T09:56:42.510Z,39.35
2023-05-10T09:57:42.812Z,39.35
2023-05-10T09:58:42.590Z,39.35
2023-05-10T09:59:42.558Z,39.28
2023-05-10T10:00:42.639Z,39.28
2023-05-10T10:01:42.678Z,39.24
2023-05-10T10:02:42.922Z,39.26
2023-05-10T10:03:42.708Z,39.20
2023-05-10T10:04:42.759Z,39.17
2023-05-10T10:05:42.756Z,39.22
2023-05-10T10:06:42.720Z,39.14
2023-05-10T10:07:42.777Z,39.14
2023-05-10T10:08:42.789Z,39.12
2023-05-10T10:09:42.856Z,39.10
2023-05-10T10:10:42.871Z,39.07
2023-05-10T10:11:42.913Z,39.15
2023-05-10T10:12:42.915Z,39.13
2023-05-10T10:13:42.912Z,39.09
2023-05-10T10:14:42.959Z,39.12
2023-05-10T10:15:43.003Z,39.16
2023-05-10T10:16:51.832Z,39.13
2023-05-10T10:17:44.025Z,39.14
2023-05-10T10:18:43.418Z,39.09
2023-05-10T10:19:43.334Z,39.11
2023-05-10T10:20:43.038Z,39.15
2023-05-10T10:21:43.001Z,39.05
2023-05-10T10:22:43.365Z,39.04
2023-05-10T10:23:43.007Z,39.06
2023-05-10T10:24:42.994Z,39.07
2023-05-10T10:25:42.963Z,39.03
2023-05-10T10:26:43.323Z,39.06
2023-05-10T10:27:42.937Z,39.00
2023-05-10T10:28:42.986Z,39.01
2023-05-10T10:29:43.344Z,39.00
2023-05-10T10:30:42.947Z,39.00
2023-05-10T10:31:43.076Z,39.12
2023-05-10T10:32:42.944Z,39.12
2023-05-10T10:33:42.922Z,39.22
2023-05-10T10:34:42.934Z,39.16
2023-05-10T10:35:43.329Z,39.17
2023-05-10T10:36:42.876Z,39.26
2023-05-10T10:37:42.890Z,39.20
2023-05-10T10:38:42.888Z,39.39
2023-05-10T10:39:42.867Z,39.40
2023-05-10T10:40:43.387Z,39.46
2023-05-10T10:41:43.420Z,39.42
2023-05-10T10:42:43.333Z,39.50
2023-05-10T10:43:42.911Z,39.51
2023-05-10T10:44:43.396Z,39.56
2023-05-10T10:45:42.997Z,39.59
2023-05-10T10:46:43.038Z,39.70
2023-05-10T10:47:43.046Z,39.71
2023-05-10T10:48:43.069Z,39.66
2023-05-10T10:49:43.319Z,39.71
2023-05-10T10:50:43.127Z,39.74
2023-05-10T10:51:43.253Z,39.73
2023-05-10T10:52:43.248Z,39.75
2023-05-10T10:53:43.244Z,39.79
2023-05-10T10:54:43.339Z,39.71
2023-05-10T10:55:43.439Z,39.72
2023-05-10T10:56:43.471Z,39.77
2023-05-10T10:57:43.549Z,39.76
2023-05-10T10:58:43.596Z,39.73
2023-05-10T10:59:43.636Z,39.73
2023-05-10T11:00:43.727Z,39.70
2023-05-10T11:01:43.761Z,39.72
2023-05-10T11:02:43.836Z,39.68
2023-05-10T11:03:43.871Z,39.51
2023-05-10T11:04:43.992Z,39.47
2023-05-10T11:05:43.949Z,39.34
2023-05-10T11:06:44.019Z,39.20
2023-05-10T11:07:44.058Z,39.04
2023-05-10T11:08:44.368Z,38.94
2023-05-10T11:09:44.369Z,38.93
2023-05-10T11:10:44.245Z,38.98
2023-05-10T11:11:44.347Z,38.95
2023-05-10T11:12:44.381Z,38.93
2023-05-10T11:13:44.397Z,39.00
2023-05-10T11:14:44.413Z,39.06
2023-05-10T11:15:44.869Z,39.10
2023-05-10T11:16:44.577Z,39.10
2023-05-10T11:17:44.936Z,38.95
2023-05-10T11:18:44.642Z,38.81
2023-05-10T11:19:44.662Z,38.73
2023-05-10T11:20:44.727Z,38.57
2023-05-10T11:21:44.766Z,38.49
2023-05-10T11:22:44.821Z,38.42
2023-05-10T11:23:44.882Z,38.31
2023-05-10T11:24:44.944Z,38.26
2023-05-10T11:25:45.008Z,38.20
2023-05-10T11:26:45.070Z,38.20
2023-05-10T11:27:45.080Z,38.05
2023-05-10T11:28:45.163Z,38.02
2023-05-10T11:29:45.229Z,37.93
2023-05-10T11:30:45.409Z,37.81
2023-05-10T11:31:45.339Z,37.75
2023-05-10T11:32:45.439Z,37.62
2023-05-10T11:33:45.434Z,37.50
2023-05-10T11:34:45.517Z,37.45
2023-05-10T11:35:45.580Z,37.45
2023-05-10T11:36:45.588Z,37.39
2023-05-10T11:37:45.631Z,37.29
2023-05-10T11:38:45.676Z,37.26
2023-05-10T11:39:45.652Z,37.27
2023-05-10T11:40:45.655Z,37.21
2023-05-10T11:41:45.671Z,37.20
2023-05-10T11:42:45.728Z,37.11
2023-05-10T11:43:45.728Z,36.99
2023-05-10T11:44:45.713Z,36.96
2023-05-10T11:45:45.736Z,36.90
2023-05-10T11:46:45.797Z,36.79
2023-05-10T11:47:45.874Z,36.70
2023-05-10T11:48:45.765Z,36.65
2023-05-10T11:49:45.797Z,36.59
2023-05-10T11:50:45.748Z,36.56
2023-05-10T11:51:45.800Z,36.48
2023-05-10T11:52:45.787Z,36.40
2023-05-10T11:53:45.811Z,36.39
2023-05-10T11:54:45.784Z,36.44
2023-05-10T11:55:45.751Z,36.44
2023-05-10T11:56:45.775Z,36.41
2023-05-10T11:57:45.796Z,36.43
2023-05-10T11:58:45.798Z,36.46
2023-05-10T11:59:45.781Z,36.48
2023-05-10T12:00:45.835Z,36.50
2023-05-10T12:01:45.865Z,36.50
2023-05-10T12:02:45.934Z,36.52
2023-05-10T12:03:45.971Z,36.50
2023-05-10T12:04:45.958Z,36.52
2023-05-10T12:05:45.952Z,36.58
2023-05-10T12:06:45.990Z,36.59
2023-05-10T12:07:46.044Z,36.60
2023-05-10T12:08:46.004Z,36.60
2023-05-10T12:09:46.049Z,36.59
2023-05-10T12:10:46.054Z,36.60
2023-05-10T12:11:46.131Z,36.62
2023-05-10T12:12:46.188Z,36.65
2023-05-10T12:13:46.240Z,36.64
2023-05-10T12:14:46.224Z,36.68
2023-05-10T12:15:46.381Z,36.66
2023-05-10T12:16:46.482Z,36.71
2023-05-10T12:17:46.393Z,36.70
2023-05-10T12:18:46.491Z,36.72
2023-05-10T12:19:46.436Z,36.73
2023-05-10T12:20:46.487Z,36.72
2023-05-10T12:21:46.496Z,36.76
2023-05-10T12:22:46.557Z,36.77
2023-05-10T12:23:46.481Z,36.76
2023-05-10T12:24:46.453Z,36.76
2023-05-10T12:25:46.532Z,36.77
2023-05-10T12:26:46.474Z,36.79
2023-05-10T12:27:46.503Z,36.79
2023-05-10T12:28:46.499Z,36.80
2023-05-10T12:29:46.533Z,36.82
2023-05-10T12:30:46.580Z,36.84
2023-05-10T12:31:46.639Z,36.84
2023-05-10T12:32:46.651Z,36.85
2023-05-10T12:33:46.620Z,36.89
2023-05-10T12:34:46.599Z,36.86
2023-05-10T12:35:46.646Z,36.86
2023-05-10T12:36:46.653Z,36.88
2023-05-10T12:37:46.682Z,36.87
2023-05-10T12:38:46.625Z,36.89
2023-05-10T12:39:46.648Z,36.89
2023-05-10T12:40:46.653Z,36.87
2023-05-10T12:41:46.686Z,36.90
2023-05-10T12:42:46.667Z,36.89
2023-05-10T12:43:46.665Z,36.89
2023-05-10T12:44:46.656Z,36.91
2023-05-10T12:45:46.728Z,36.92
2023-05-10T12:46:46.635Z,36.91
2023-05-10T12:47:46.737Z,36.93
2023-05-10T12:48:46.693Z,36.92
2023-05-10T12:49:46.700Z,36.96
2023-05-10T12:50:46.649Z,36.94
2023-05-10T12:51:46.695Z,36.95
2023-05-10T12:52:46.734Z,36.94
2023-05-10T12:53:48.660Z,36.95
2023-05-10T12:54:46.717Z,36.95